createdAt,value
2019-02-11T00:01:09.035Z,6.46
2019-02-11T00:03:37.429Z,6.45
2019-02-11T00:06:05.819Z,6.42
2019-02-11T00:08:34.439Z,6.39
2019-02-11T00:11:02.829Z,6.37
2019-02-11T00:13:31.227Z,6.37
2019-02-11T00:15:59.879Z,6.38
2019-02-11T00:18:28.264Z,6.35
2019-02-11T00:20:56.654Z,6.34
2019-02-11T00:23:25.200Z,6.31
2019-02-11T00:25:53.589Z,6.31
2019-02-11T00:28:21.986Z,6.33
2019-02-11T00:30:50.522Z,6.34
2019-02-11T00:33:18.915Z,6.34
2019-02-11T00:35:47.318Z,6.34
2019-02-11T00:38:15.898Z,6.33
2019-02-11T00:40:44.290Z,6.33
2019-02-11T00:43:18.970Z,6.30
2019-02-11T00:45:43.185Z,6.31
2019-02-11T00:48:11.581Z,6.31
2019-02-11T00:50:39.981Z,6.31
2019-02-11T00:53:08.403Z,6.30
2019-02-11T00:55:36.801Z,6.28
2019-02-11T00:58:05.216Z,6.28
2019-02-11T01:00:33.963Z,6.29
2019-02-11T01:03:02.357Z,6.27
2019-02-11T01:05:30.749Z,6.24
2019-02-11T01:07:59.194Z,6.19
2019-02-11T01:10:27.587Z,6.18
2019-02-11T01:12:56.026Z,6.17
2019-02-11T01:15:24.409Z,6.15
2019-02-11T01:17:52.813Z,6.13
2019-02-11T01:20:21.273Z,6.10
2019-02-11T01:22:49.689Z,6.09
2019-02-11T01:25:18.088Z,6.09
2019-02-11T01:27:46.480Z,6.07
2019-02-11T01:30:15.034Z,6.05
2019-02-11T01:32:43.430Z,6.03
2019-02-11T01:35:11.826Z,6.00
2019-02-11T01:37:40.367Z,5.99
2019-02-11T01:40:10.805Z,6.00
2019-02-11T01:42:39.195Z,5.97
2019-02-11T01:45:12.380Z,5.95
2019-02-11T01:47:40.769Z,5.95
2019-02-11T01:50:11.520Z,5.94
2019-02-11T01:52:40.071Z,5.91
2019-02-11T01:55:08.536Z,5.91
2019-02-11T01:57:36.927Z,5.91
2019-02-11T02:00:08.354Z,5.88
2019-02-11T02:02:36.752Z,5.86
2019-02-11T02:05:06.877Z,5.86
2019-02-11T02:07:35.547Z,5.85
2019-02-11T02:10:08.724Z,5.86
2019-02-11T02:12:37.116Z,5.85
2019-02-11T02:15:07.309Z,5.83
2019-02-11T02:17:35.701Z,5.84
2019-02-11T02:20:06.444Z,5.83
2019-02-11T02:22:35.027Z,5.83
2019-02-11T02:25:03.419Z,5.81
2019-02-11T02:27:31.803Z,5.80
2019-02-11T02:30:00.265Z,5.80
2019-02-11T02:32:28.625Z,5.80
2019-02-11T02:34:57.031Z,5.80
2019-02-11T02:37:25.744Z,5.77
2019-02-11T02:39:54.139Z,5.78
2019-02-11T02:42:22.534Z,5.78
2019-02-11T02:44:50.985Z,5.80
2019-02-11T02:47:19.379Z,5.80
2019-02-11T02:49:47.773Z,5.80
2019-02-11T02:52:16.199Z,5.81
2019-02-11T02:54:44.594Z,5.80
2019-02-11T02:57:12.993Z,5.78
2019-02-11T02:59:41.415Z,5.79
2019-02-11T03:02:09.812Z,5.80
2019-02-11T03:04:38.206Z,5.81
2019-02-11T03:07:06.976Z,5.77
2019-02-11T03:09:35.374Z,5.76
2019-02-11T03:12:03.835Z,5.74
2019-02-11T03:14:32.515Z,5.75
2019-02-11T03:17:00.907Z,5.76
2019-02-11T03:19:29.305Z,5.72
2019-02-11T03:21:57.728Z,5.67
2019-02-11T03:24:26.142Z,5.63
2019-02-11T03:26:54.530Z,5.57
2019-02-11T03:29:22.955Z,5.55
2019-02-11T03:31:51.388Z,5.52
2019-02-11T03:34:19.744Z,5.50
2019-02-11T03:36:48.184Z,5.48
2019-02-11T03:39:16.601Z,5.42
2019-02-11T03:41:45.001Z,5.36
2019-02-11T03:44:15.313Z,5.33
2019-02-11T03:46:43.843Z,5.32
2019-02-11T03:49:12.238Z,5.33
2019-02-11T03:51:41.084Z,5.35
2019-02-11T03:54:09.481Z,5.38
2019-02-11T03:56:38.113Z,5.35
2019-02-11T03:59:06.593Z,5.30
2019-02-11T04:01:36.548Z,5.28
2019-02-11T04:04:04.923Z,5.26
2019-02-11T04:06:33.687Z,5.25
2019-02-11T04:09:02.077Z,5.25
2019-02-11T04:11:30.486Z,5.24
2019-02-11T04:13:59.029Z,5.25
2019-02-11T04:16:27.425Z,5.24
2019-02-11T04:18:55.817Z,5.21
2019-02-11T04:21:24.367Z,5.17
2019-02-11T04:23:52.765Z,5.13
2019-02-11T04:26:21.163Z,5.11
2019-02-11T04:28:49.588Z,5.11
2019-02-11T04:31:17.985Z,5.07
2019-02-11T04:33:46.376Z,5.06
2019-02-11T04:36:16.685Z,5.02
2019-02-11T04:38:45.131Z,4.87
2019-02-11T04:41:13.529Z,4.80
2019-02-11T04:43:42.125Z,4.76
2019-02-11T04:46:10.516Z,4.70
2019-02-11T04:48:38.974Z,4.66
2019-02-11T04:51:07.574Z,4.64
2019-02-11T04:53:35.964Z,4.61
2019-02-11T04:56:04.374Z,4.57
2019-02-11T04:58:32.779Z,4.57
2019-02-11T05:01:01.169Z,4.57
2019-02-11T05:03:29.628Z,4.53
2019-02-11T05:05:58.047Z,4.51
2019-02-11T05:08:26.454Z,4.48
2019-02-11T05:10:54.913Z,4.48
2019-02-11T05:13:23.329Z,4.45
2019-02-11T05:15:51.723Z,4.47
2019-02-11T05:18:20.127Z,4.47
2019-02-11T05:20:48.540Z,4.47
2019-02-11T05:23:16.928Z,4.49
2019-02-11T05:25:45.329Z,4.49
2019-02-11T05:28:14.189Z,4.49
2019-02-11T05:30:42.585Z,4.49
2019-02-11T05:33:12.693Z,4.50
2019-02-11T05:35:41.097Z,4.52
2019-02-11T05:38:09.483Z,4.55
2019-02-11T05:40:37.875Z,4.58
2019-02-11T05:43:06.320Z,4.58
2019-02-11T05:45:34.714Z,4.57
2019-02-11T05:48:03.102Z,4.53
2019-02-11T05:50:31.632Z,4.51
2019-02-11T05:53:00.023Z,4.50
2019-02-11T05:55:28.416Z,4.45
2019-02-11T05:57:56.847Z,4.40
2019-02-11T06:00:26.595Z,4.34
2019-02-11T06:02:54.907Z,4.31
2019-02-11T06:05:23.646Z,4.31
2019-02-11T06:07:54.399Z,4.27
2019-02-11T06:10:22.152Z,4.26
2019-02-11T06:12:50.715Z,4.19
2019-02-11T06:15:19.106Z,4.17
2019-02-11T06:17:47.505Z,4.12
2019-02-11T06:20:15.941Z,4.04
2019-02-11T06:22:44.321Z,4.01
2019-02-11T06:25:12.730Z,3.97
2019-02-11T06:27:41.149Z,3.90
2019-02-11T06:30:12.272Z,3.89
2019-02-11T06:32:40.686Z,3.90
2019-02-11T06:35:09.672Z,3.90
2019-02-11T06:37:38.073Z,3.83
2019-02-11T06:40:09.521Z,3.81
2019-02-11T06:42:38.111Z,3.81
2019-02-11T06:45:13.088Z,3.84
2019-02-11T06:47:39.140Z,3.86
2019-02-11T06:50:13.358Z,3.85
2019-02-11T06:52:41.752Z,3.79
2019-02-11T06:55:11.700Z,3.72
2019-02-11T06:57:40.127Z,3.68
2019-02-11T07:00:13.725Z,3.67
2019-02-11T07:02:42.118Z,3.65
2019-02-11T07:05:10.618Z,3.65
2019-02-11T07:07:39.009Z,3.63
2019-02-11T07:10:10.246Z,3.60
2019-02-11T07:12:39.036Z,3.61
2019-02-11T07:15:12.274Z,3.61
2019-02-11T07:17:40.738Z,3.60
2019-02-11T07:20:10.430Z,3.57
2019-02-11T07:22:38.834Z,3.57
2019-02-11T07:25:08.662Z,3.56
2019-02-11T07:27:37.198Z,3.55
2019-02-11T07:30:11.077Z,3.55
2019-02-11T07:32:39.470Z,3.54
2019-02-11T07:35:08.370Z,3.54
2019-02-11T07:37:36.754Z,3.56
2019-02-11T07:40:08.200Z,3.50
2019-02-11T07:42:56.952Z,3.44
2019-02-11T07:45:30.065Z,3.44
2019-02-11T07:47:57.247Z,3.38
2019-02-11T07:50:25.690Z,3.35
2019-02-11T07:52:54.078Z,3.34
2019-02-11T07:55:22.534Z,3.28
2019-02-11T07:57:51.316Z,3.26
2019-02-11T08:00:19.714Z,3.24
2019-02-11T08:02:48.273Z,3.20
2019-02-11T08:05:16.865Z,3.16
2019-02-11T08:07:45.257Z,3.18
2019-02-11T08:10:13.658Z,3.19
2019-02-11T08:12:42.084Z,3.18
2019-02-11T08:15:10.544Z,3.16
2019-02-11T08:17:38.941Z,3.14
2019-02-11T08:20:10.647Z,3.14
2019-02-11T08:22:39.041Z,3.13
2019-02-11T08:25:07.668Z,3.12
2019-02-11T08:27:36.264Z,3.14
2019-02-11T08:30:07.697Z,3.14
2019-02-11T08:32:36.099Z,3.12
2019-02-11T08:35:05.552Z,3.10
2019-02-11T08:37:33.958Z,3.10
2019-02-11T08:40:02.367Z,3.11
2019-02-11T08:42:30.944Z,3.11
2019-02-11T08:44:59.337Z,3.06
2019-02-11T08:47:27.838Z,3.04
2019-02-11T08:49:56.428Z,2.99
2019-02-11T08:52:24.822Z,2.95
2019-02-11T08:54:53.216Z,2.95
2019-02-11T08:57:21.658Z,2.96
2019-02-11T08:59:50.068Z,2.99
2019-02-11T09:02:18.504Z,3.03
2019-02-11T09:04:47.117Z,3.05
2019-02-11T09:07:15.549Z,3.08
2019-02-11T09:09:43.940Z,3.10
2019-02-11T09:12:12.366Z,3.16
2019-02-11T09:14:40.832Z,3.20
2019-02-11T09:17:10.557Z,3.23
2019-02-11T09:19:39.084Z,3.20
2019-02-11T09:22:07.941Z,3.19
2019-02-11T09:24:36.541Z,3.23
2019-02-11T09:27:05.042Z,3.24
2019-02-11T09:29:33.657Z,3.28
2019-02-11T09:32:02.010Z,3.28
2019-02-11T09:34:30.428Z,3.29
2019-02-11T09:36:58.822Z,3.28
2019-02-11T09:39:27.218Z,3.30
2019-02-11T09:41:55.634Z,3.38
2019-02-11T09:44:29.476Z,3.38
2019-02-11T09:46:54.425Z,3.41
2019-02-11T09:49:24.814Z,3.43
2019-02-11T09:51:53.678Z,3.44
2019-02-11T09:54:22.074Z,3.39
2019-02-11T09:56:50.493Z,3.41
2019-02-11T09:59:19.141Z,3.38
2019-02-11T10:01:47.493Z,3.37
2019-02-11T10:04:16.338Z,3.35
2019-02-11T10:06:44.736Z,3.38
2019-02-11T10:09:13.137Z,3.30
2019-02-11T10:11:41.578Z,3.25
2019-02-11T10:14:09.966Z,3.25
2019-02-11T10:16:38.361Z,3.30
2019-02-11T10:19:06.907Z,3.35
2019-02-11T10:21:35.326Z,3.37
2019-02-11T10:24:03.697Z,3.36
2019-02-11T10:26:32.196Z,3.39
2019-02-11T10:29:00.596Z,3.38
2019-02-11T10:31:29.074Z,3.33
2019-02-11T10:33:57.594Z,3.35
2019-02-11T10:36:26.067Z,3.33
2019-02-11T10:38:54.630Z,3.35
2019-02-11T10:41:23.201Z,3.40
2019-02-11T10:43:51.672Z,3.39
2019-02-11T10:46:21.218Z,3.38
2019-02-11T10:48:49.773Z,3.33
2019-02-11T10:51:18.434Z,3.28
2019-02-11T10:53:47.040Z,3.26
2019-02-11T10:56:15.866Z,3.27
2019-02-11T10:58:44.428Z,3.33
2019-02-11T11:01:13.401Z,3.34
2019-02-11T11:03:42.446Z,3.31
2019-02-11T11:06:11.594Z,3.37
2019-02-11T11:08:39.984Z,3.35
2019-02-11T11:11:08.614Z,3.28
2019-02-11T11:13:36.939Z,3.24
2019-02-11T11:16:05.569Z,3.23
2019-02-11T11:18:34.158Z,3.19
2019-02-11T11:21:02.558Z,3.22
2019-02-11T11:23:30.956Z,3.21
2019-02-11T11:25:59.406Z,3.22
2019-02-11T11:28:27.808Z,3.19
2019-02-11T11:30:56.205Z,3.21
2019-02-11T11:33:24.654Z,3.22
2019-02-11T11:35:53.046Z,3.21
2019-02-11T11:38:21.452Z,3.25
2019-02-11T11:40:50.261Z,3.29
2019-02-11T11:43:18.679Z,3.25
2019-02-11T11:45:47.099Z,3.24
2019-02-11T11:48:15.613Z,3.24
2019-02-11T11:50:44.075Z,3.24
2019-02-11T11:53:12.467Z,3.30
2019-02-11T11:55:40.901Z,3.25
2019-02-11T11:58:09.372Z,3.20
2019-02-11T12:00:38.885Z,3.20
2019-02-11T12:03:07.382Z,3.19
2019-02-11T12:05:35.780Z,3.20
2019-02-11T12:08:04.249Z,3.22
2019-02-11T12:10:32.926Z,3.20
2019-02-11T12:13:20.579Z,3.15
2019-02-11T12:15:31.475Z,3.15
2019-02-11T12:17:59.865Z,3.17
2019-02-11T12:20:28.260Z,3.19
2019-02-11T12:22:56.683Z,3.17
2019-02-11T12:25:25.279Z,3.15
2019-02-11T12:27:53.679Z,3.14
2019-02-11T12:30:24.873Z,3.18
2019-02-11T12:32:55.435Z,3.17
2019-02-11T12:35:23.623Z,3.14
2019-02-11T12:37:52.043Z,3.13
2019-02-11T12:40:20.853Z,3.17
2019-02-11T12:42:52.764Z,3.18
2019-02-11T12:45:22.101Z,3.12
2019-02-11T12:47:50.627Z,3.11
2019-02-11T12:50:19.381Z,3.12
2019-02-11T12:52:47.861Z,3.11
2019-02-11T12:55:17.741Z,3.00
2019-02-11T12:57:46.272Z,2.96
2019-02-11T13:00:19.657Z,2.92
2019-02-11T13:02:48.522Z,2.94
2019-02-11T13:05:22.179Z,2.92
2019-02-11T13:07:47.662Z,2.93
2019-02-11T13:10:19.227Z,2.93
2019-02-11T13:12:47.944Z,2.95
2019-02-11T13:15:42.061Z,2.93
2019-02-11T13:17:48.015Z,2.94
2019-02-11T13:20:17.582Z,2.93
2019-02-11T13:22:46.407Z,2.91
2019-02-11T13:25:16.520Z,2.87
2019-02-11T13:27:45.094Z,2.82
2019-02-11T13:30:16.442Z,2.81
2019-02-11T13:32:44.979Z,2.82
2019-02-11T13:35:53.297Z,2.80
2019-02-11T13:38:21.761Z,2.76
2019-02-11T13:46:32.755Z,2.79
2019-02-11T13:49:01.214Z,2.78
2019-02-11T13:51:48.922Z,2.78
2019-02-11T13:56:51.348Z,2.77
2019-02-11T13:59:19.771Z,2.79
2019-02-11T14:01:48.409Z,2.81
2019-02-11T14:04:16.796Z,2.81
2019-02-11T14:07:04.507Z,2.82
2019-02-11T14:10:12.826Z,2.87
2019-02-11T14:12:41.271Z,2.86
2019-02-11T14:15:28.891Z,2.83
2019-02-11T14:18:37.243Z,2.83
2019-02-11T14:21:24.917Z,2.83
2019-02-11T14:23:53.341Z,2.88
2019-02-11T14:26:28.704Z,2.89
2019-02-11T14:28:57.113Z,2.87
2019-02-11T14:31:25.531Z,2.90
2019-02-11T14:33:53.927Z,2.97
2019-02-11T14:36:22.325Z,2.98
2019-02-11T14:38:51.049Z,3.03
2019-02-11T14:41:19.445Z,3.01
2019-02-11T14:43:47.884Z,3.01
2019-02-11T14:46:16.476Z,3.01
2019-02-11T14:48:44.854Z,3.01
2019-02-11T14:51:13.252Z,3.01
2019-02-11T14:53:41.670Z,3.01
2019-02-11T14:56:10.142Z,3.02
2019-02-11T14:58:38.527Z,3.03
2019-02-11T15:01:07.010Z,3.06
2019-02-11T15:03:35.626Z,3.10
2019-02-11T15:06:04.082Z,3.14
2019-02-11T15:08:32.676Z,3.18
2019-02-11T15:11:01.118Z,3.21
2019-02-11T15:13:29.516Z,3.19
2019-02-11T15:15:57.944Z,3.18
2019-02-11T15:18:34.094Z,3.20
2019-02-11T15:20:56.471Z,3.21
2019-02-11T15:23:25.011Z,3.17
2019-02-11T15:25:53.399Z,3.16
2019-02-11T15:28:21.793Z,3.17
2019-02-11T15:30:50.225Z,3.17
2019-02-11T15:33:18.626Z,3.15
2019-02-11T15:35:47.020Z,3.15
2019-02-11T15:38:15.463Z,3.17
2019-02-11T15:40:43.892Z,3.16
2019-02-11T15:43:12.624Z,3.19
2019-02-11T15:45:41.033Z,3.21
2019-02-11T15:48:09.427Z,3.23
2019-02-11T15:50:37.813Z,3.24
2019-02-11T15:53:06.329Z,3.28
2019-02-11T15:55:34.734Z,3.26
2019-02-11T15:58:03.135Z,3.26
2019-02-11T16:00:31.559Z,3.26
2019-02-11T16:02:59.944Z,3.27
2019-02-11T16:05:28.415Z,3.28
2019-02-11T16:07:56.839Z,3.31
2019-02-11T16:10:27.272Z,3.33
2019-02-11T16:12:55.676Z,3.35
2019-02-11T16:15:24.150Z,3.33
2019-02-11T16:17:52.613Z,3.35
2019-02-11T16:20:21.005Z,3.34
2019-02-11T16:22:49.439Z,3.31
2019-02-11T16:25:18.106Z,3.30
2019-02-11T16:27:46.525Z,3.29
2019-02-11T16:30:19.745Z,3.27
2019-02-11T16:32:48.307Z,3.22
2019-02-11T16:35:18.071Z,3.21
2019-02-11T16:37:46.502Z,3.19
2019-02-11T16:40:17.945Z,3.15
2019-02-11T16:42:46.345Z,3.18
2019-02-11T16:45:14.776Z,3.18
2019-02-11T16:47:43.179Z,3.17
2019-02-11T16:50:14.665Z,3.14
2019-02-11T16:52:43.241Z,3.14
2019-02-11T16:55:12.381Z,3.13
2019-02-11T16:57:40.845Z,3.10
2019-02-11T17:00:15.240Z,3.11
2019-02-11T17:02:43.738Z,3.13
2019-02-11T17:05:12.770Z,3.12
2019-02-11T17:07:42.256Z,3.12
2019-02-11T17:10:15.201Z,3.11
2019-02-11T17:12:43.611Z,3.12
2019-02-11T17:15:18.440Z,3.08
2019-02-11T17:17:46.978Z,3.08
2019-02-11T17:20:16.193Z,3.05
2019-02-11T17:22:45.172Z,3.01
2019-02-11T17:25:14.769Z,3.01
2019-02-11T17:27:43.317Z,3.01
2019-02-11T17:30:26.811Z,3.01
2019-02-11T17:32:55.287Z,2.99
2019-02-11T17:35:23.728Z,2.98
2019-02-11T17:37:52.214Z,2.96
2019-02-11T17:40:20.690Z,2.96
2019-02-11T17:42:49.157Z,2.97
2019-02-11T17:45:29.858Z,3.00
2019-02-11T17:47:58.246Z,3.02
2019-02-11T17:50:26.806Z,3.03
2019-02-11T17:53:07.772Z,3.04
2019-02-11T17:55:36.168Z,3.05
2019-02-11T17:58:04.812Z,3.04
2019-02-11T18:00:37.863Z,3.06
2019-02-11T18:03:06.282Z,3.07
2019-02-11T18:05:34.688Z,3.08
2019-02-11T18:08:03.396Z,3.09
2019-02-11T18:10:31.798Z,3.10
2019-02-11T18:13:00.171Z,3.11
2019-02-11T18:15:28.607Z,3.12
2019-02-11T18:17:57.001Z,3.13
2019-02-11T18:20:25.411Z,3.13
2019-02-11T18:22:53.867Z,3.13
2019-02-11T18:25:22.293Z,3.14
2019-02-11T18:27:50.684Z,3.15
2019-02-11T18:30:19.228Z,3.14
2019-02-11T18:32:47.624Z,3.10
2019-02-11T18:35:21.214Z,3.06
2019-02-11T18:37:49.638Z,3.01
2019-02-11T18:40:18.100Z,3.00
2019-02-11T18:42:46.566Z,2.98
2019-02-11T18:45:16.814Z,2.96
2019-02-11T18:47:45.377Z,2.95
2019-02-11T18:50:16.810Z,2.95
2019-02-11T18:52:45.380Z,2.95
2019-02-11T18:55:18.797Z,2.94
2019-02-11T18:57:47.253Z,2.94
2019-02-11T19:00:18.986Z,2.94
2019-02-11T19:02:47.725Z,2.92
2019-02-11T19:05:17.151Z,2.95
2019-02-11T19:07:45.847Z,2.95
2019-02-11T19:10:18.618Z,2.96
2019-02-11T19:12:47.466Z,2.95
2019-02-11T19:15:17.981Z,2.95
2019-02-11T19:17:46.386Z,2.96
2019-02-11T19:20:16.221Z,2.99
2019-02-11T19:22:44.957Z,2.98
2019-02-11T19:25:13.579Z,2.99
2019-02-11T19:27:42.212Z,2.97
2019-02-11T19:30:20.925Z,2.98
2019-02-11T19:32:49.561Z,2.99
2019-02-11T19:35:18.098Z,3.00
2019-02-11T19:37:47.109Z,3.01
2019-02-11T19:40:20.594Z,3.01
2019-02-11T19:42:49.063Z,3.03
2019-02-11T19:45:24.742Z,3.04
2019-02-11T19:47:53.280Z,3.05
2019-02-11T19:50:21.669Z,3.04
2019-02-11T19:52:50.226Z,3.05
2019-02-11T19:55:18.799Z,3.06
2019-02-11T19:57:47.222Z,3.06
2019-02-11T20:00:22.715Z,3.09
2019-02-11T20:02:51.417Z,3.09
2019-02-11T20:05:19.895Z,3.09
2019-02-11T20:07:48.481Z,3.10
2019-02-11T20:10:19.963Z,3.12
2019-02-11T20:12:48.525Z,3.11
2019-02-11T20:15:19.389Z,3.06
2019-02-11T20:17:47.856Z,2.97
2019-02-11T20:20:20.797Z,2.90
2019-02-11T20:22:49.305Z,2.84
2019-02-11T20:25:17.699Z,2.81
2019-02-11T20:27:46.265Z,2.79
2019-02-11T20:30:17.614Z,2.79
2019-02-11T20:32:46.077Z,2.79
2019-02-11T20:35:14.556Z,2.78
2019-02-11T20:37:43.087Z,2.80
2019-02-11T20:40:14.423Z,2.83
2019-02-11T20:42:44.339Z,2.86
2019-02-11T20:45:15.822Z,2.86
2019-02-11T20:47:44.198Z,2.84
2019-02-11T20:50:12.945Z,2.82
2019-02-11T20:52:41.423Z,2.78
2019-02-11T20:55:14.062Z,2.77
2019-02-11T20:57:43.421Z,2.76
2019-02-11T21:00:20.518Z,2.78
2019-02-11T21:02:49.080Z,2.79
2019-02-11T21:05:19.376Z,2.79
2019-02-11T21:07:47.916Z,2.78
2019-02-11T21:10:18.368Z,2.80
2019-02-11T21:12:46.953Z,2.81
2019-02-11T21:15:16.723Z,2.81
2019-02-11T21:17:59.348Z,2.81
2019-02-11T21:20:55.310Z,2.80
2019-02-11T21:23:23.711Z,2.81
2019-02-11T21:25:52.104Z,2.79
2019-02-11T21:28:20.602Z,2.80
2019-02-11T21:33:57.158Z,2.83
2019-02-11T21:36:25.619Z,2.80
2019-02-11T21:38:54.014Z,2.78
2019-02-11T21:44:16.136Z,2.77
2019-02-11T21:49:18.038Z,2.77
2019-02-11T21:51:46.478Z,2.81
2019-02-11T21:54:14.870Z,2.84
2019-02-11T21:56:43.360Z,2.91
2019-02-11T22:01:46.178Z,3.05
2019-02-11T22:04:14.594Z,3.09
2019-02-11T22:06:42.990Z,3.13
2019-02-11T22:09:11.380Z,3.13
2019-02-11T22:11:39.797Z,3.10
2019-02-11T22:14:08.198Z,3.03
2019-02-11T22:16:51.046Z,2.89
2019-02-11T22:19:06.726Z,2.75
2019-02-11T22:21:35.125Z,2.67
2019-02-11T22:29:32.170Z,2.42
2019-02-11T22:32:00.655Z,2.30
2019-02-11T22:34:29.073Z,2.23
2019-02-11T22:36:57.478Z,2.18
2019-02-11T22:41:59.838Z,2.15
2019-02-11T22:44:28.249Z,2.10
2019-02-11T22:50:10.975Z,2.06
2019-02-11T22:52:39.457Z,2.05
2019-02-11T22:55:47.773Z,1.95
2019-02-11T23:01:51.084Z,1.96
2019-02-11T23:04:19.482Z,1.91
2019-02-11T23:06:47.877Z,1.87
2019-02-11T23:14:29.207Z,1.95
2019-02-11T23:16:57.590Z,2.00
2019-02-11T23:19:25.992Z,2.02
2019-02-11T23:21:54.476Z,2.05
2019-02-11T23:24:22.866Z,2.08
2019-02-11T23:26:51.261Z,2.12
2019-02-11T23:29:19.679Z,2.12
2019-02-11T23:31:48.066Z,2.10
2019-02-11T23:34:16.497Z,2.06
2019-02-11T23:36:44.928Z,1.99
2019-02-11T23:42:02.415Z,2.04
2019-02-11T23:44:30.814Z,2.03
2019-02-11T23:46:59.274Z,2.06
2019-02-11T23:49:27.703Z,2.08
2019-02-11T23:51:56.151Z,2.10
2019-02-11T23:54:24.612Z,2.13
2019-02-11T23:56:53.038Z,2.14
2019-02-11T23:59:21.502Z,2.16
